Weather reports worldwide

Advertisment
Molina De Aragon, Spain (8232): temperature & dewpoint: 02.08.2020 05:00:00 - 08.08.2020 05:00:00 (CEST)Molina De Aragon, Spain (8232): wind speed: 02.08.2020 05:00:00 - 08.08.2020 05:00:00 (CEST)Molina De Aragon, Spain (8232): wind direction: 02.08.2020 05:00:00 - 08.08.2020 05:00:00 (CEST)Molina De Aragon, Spain (8232): visibility: 02.08.2020 05:00:00 - 08.08.2020 05:00:00 (CEST)Molina De Aragon, Spain (8232): precipitation: 02.08.2020 05:00:00 - 08.08.2020 05:00:00 (CEST)
Date & Time tt [°C] td [°C] ff [km/h] ff [kn] dd vv [km] rr [mm]
08.08.2020 05:00:00 18,0 11,8 2 1 ESE 20 -
08.08.2020 04:00:00 19,3 11,8 4 2 ESE 20 0,0
08.08.2020 03:00:00 21,0 12,2 8 4 SE 20 0,0
08.08.2020 02:00:00 22,6 11,3 9 5 S 20 -
08.08.2020 01:00:00 23,1 10,2 4 2 NE 20 0,0
08.08.2020 00:00:00 23,1 12,1 2 1 SW 20 0,0
07.08.2020 23:00:00 24,8 11,0 8 4 E 20 -
07.08.2020 22:00:00 25,9 10,9 8 4 E 20 0,0
07.08.2020 21:00:00 27,4 11,8 13 7 E 20 0,0
07.08.2020 20:00:00 29,9 10,9 15 8 E 20 -
07.08.2020 19:00:00 31,3 9,5 15 8 E 20 0,0
07.08.2020 18:00:00 33,0 9,7 15 8 ESE 20 0,0
07.08.2020 17:00:00 35,3 10,4 9 5 E 20 -
07.08.2020 16:00:00 35,4 11,1 11 6 WSW 20 0,0
07.08.2020 15:00:00 34,4 10,9 5 3 WNW 20 0,0
07.08.2020 14:00:00 34,9 12,5 8 4 W 20 -
07.08.2020 13:00:00 33,4 10,7 5 3 NNE 20 0,0
07.08.2020 12:00:00 31,2 12,5 4 2 W 20 0,0
07.08.2020 11:00:00 26,6 15,0 2 1 W 20 -
07.08.2020 10:00:00 21,8 14,4 2 1 WSW 20 0,0
07.08.2020 09:00:00 17,4 12,5 2 1 NE 20 0,0
07.08.2020 08:00:00 13,9 11,1 0 0 N 19 -
07.08.2020 07:00:00 13,9 11,2 2 1 ESE 20 0,0
07.08.2020 06:00:00 14,4 10,8 2 1 ENE 20 0,0
07.08.2020 05:00:00 15,2 10,8 2 1 ENE 20 -
07.08.2020 04:00:00 16,3 11,4 2 1 E 20 0,0
07.08.2020 03:00:00 17,5 12,0 2 1 E 20 0,0
07.08.2020 02:00:00 19,0 13,2 2 1 SE 20 -
07.08.2020 01:00:00 20,5 13,7 2 1 E 17 0,0
07.08.2020 00:00:00 22,1 14,2 2 1 NNE 18 0,0
06.08.2020 23:00:00 24,1 12,1 2 1 SE 20 -
06.08.2020 22:00:00 26,8 10,9 2 1 SSW 20 0,0
06.08.2020 21:00:00 29,8 10,4 11 6 ENE 20 0,0
06.08.2020 20:00:00 29,7 11,7 5 3 N 18 -
06.08.2020 19:00:00 31,4 12,7 4 2 N 20 0,0
06.08.2020 18:00:00 32,9 11,4 4 2 NNE 20 0,0
06.08.2020 17:00:00 32,8 12,4 5 3 SE 20 -
06.08.2020 16:00:00 32,9 11,4 5 3 WSW 20 0,0
06.08.2020 15:00:00 33,2 11,7 4 2 NW 20 0,0
06.08.2020 14:00:00 33,2 13,8 5 3 ENE 20 -
06.08.2020 13:00:00 31,6 13,8 5 3 N 20 0,0
06.08.2020 12:00:00 29,6 13,8 4 2 NNE 20 0,0
06.08.2020 11:00:00 24,9 16,6 2 1 SW 20 -
06.08.2020 10:00:00 20,9 14,3 2 1 W 20 0,0
06.08.2020 09:00:00 17,0 11,9 2 1 SSE 20 0,0
06.08.2020 08:00:00 12,9 9,9 0 0 N 20 -
06.08.2020 07:00:00 12,9 9,0 0 0 N 20 0,0
06.08.2020 06:00:00 13,8 9,0 2 1 ESE 20 0,0
06.08.2020 05:00:00 14,7 9,9 2 1 SE 20 -
06.08.2020 04:00:00 14,7 9,5 2 1 SE 20 0,0
06.08.2020 03:00:00 15,3 8,5 2 1 ESE 20 0,0
06.08.2020 02:00:00 16,2 8,2 2 1 E 20 -
06.08.2020 01:00:00 17,5 7,8 2 1 ENE 18 0,0
06.08.2020 00:00:00 19,5 7,9 2 1 ESE 19 0,0
05.08.2020 23:00:00 21,8 8,0 2 1 E 19 -
05.08.2020 22:00:00 24,5 7,2 2 1 NNE 11 0,0
05.08.2020 21:00:00 27,8 7,6 4 2 NE 15 0,0
05.08.2020 20:00:00 30,7 5,9 5 3 NW 20 -
05.08.2020 19:00:00 32,3 7,9 5 3 SW 20 0,0
05.08.2020 18:00:00 32,4 5,0 5 3 WSW 20 0,0
05.08.2020 17:00:00 32,3 8,5 8 4 W 20 -
05.08.2020 16:00:00 31,4 10,1 8 4 WSW 20 0,0
05.08.2020 15:00:00 30,9 6,7 9 5 W 20 0,0
05.08.2020 14:00:00 29,4 8,4 5 3 W 20 -
05.08.2020 13:00:00 28,2 9,5 8 4 W 20 0,0
05.08.2020 12:00:00 26,4 9,7 8 4 W 20 0,0
05.08.2020 11:00:00 22,9 11,9 4 2 SW 20 -
05.08.2020 10:00:00 17,6 9,7 2 1 WSW 20 0,0
05.08.2020 09:00:00 13,9 7,4 2 1 S 20 0,0
05.08.2020 08:00:00 9,4 6,1 2 1 E 20 -
05.08.2020 07:00:00 9,1 5,6 0 0 N 20 0,0
05.08.2020 06:00:00 9,8 6,1 2 1 E 20 0,0
05.08.2020 05:00:00 10,5 6,1 2 1 ENE 20 -
05.08.2020 04:00:00 11,5 6,6 2 1 ESE 20 0,0
05.08.2020 03:00:00 12,4 6,9 2 1 ESE 20 0,0
05.08.2020 02:00:00 13,6 7,6 2 1 SE 20 -
05.08.2020 01:00:00 14,9 7,7 0 0 N 20 0,0
05.08.2020 00:00:00 16,4 7,9 4 2 SE 20 0,0
04.08.2020 23:00:00 18,4 7,8 4 2 E 13 -
04.08.2020 22:00:00 21,1 7,7 2 1 NE 20 0,0
04.08.2020 21:00:00 24,3 3,6 8 4 N 17 0,0
04.08.2020 20:00:00 26,4 4,8 9 5 N 16 -
04.08.2020 19:00:00 28,6 5,4 5 3 NW 20 0,0
04.08.2020 18:00:00 28,5 5,3 5 3 E 20 0,0
04.08.2020 17:00:00 28,2 6,9 8 4 N 20 -
04.08.2020 16:00:00 26,7 5,6 5 3 S 20 0,0
04.08.2020 15:00:00 26,2 6,8 4 2 NNW 20 0,0
04.08.2020 14:00:00 25,1 6,3 5 3 NE 20 -
04.08.2020 13:00:00 24,0 6,7 8 4 N 20 0,0
04.08.2020 12:00:00 22,1 8,6 4 2 NNE 6 0,0
04.08.2020 11:00:00 20,9 8,5 5 3 NNE 20 -
04.08.2020 10:00:00 16,5 8,9 2 1 NE 20 0,0
04.08.2020 09:00:00 12,4 8,1 2 1 NNE 20 0,0
04.08.2020 08:00:00 8,2 6,0 2 1 NNE 20 -
04.08.2020 07:00:00 8,5 5,9 2 1 NE 20 0,0
04.08.2020 06:00:00 9,5 6,6 2 1 ENE 20 0,0
04.08.2020 05:00:00 10,6 7,1 4 2 E 20 -
04.08.2020 04:00:00 11,3 7,6 2 1 E 20 0,0
04.08.2020 03:00:00 12,2 7,7 2 1 E 20 0,0
04.08.2020 02:00:00 13,5 8,1 4 2 NNE 20 -
04.08.2020 01:00:00 14,9 8,4 2 1 ENE 17 0,0
04.08.2020 00:00:00 16,8 9,0 2 1 ENE 16 0,0
03.08.2020 23:00:00 18,5 9,0 4 2 NE 20 -
03.08.2020 22:00:00 21,0 8,6 2 1 NNE 15 0,0
03.08.2020 21:00:00 23,4 8,3 4 2 NNE 15 0,0
03.08.2020 20:00:00 25,5 5,6 8 4 N 20 -
03.08.2020 19:00:00 27,8 7,1 13 7 N 20 0,0
03.08.2020 18:00:00 27,6 8,0 11 6 NW 20 0,0
03.08.2020 17:00:00 28,0 7,8 9 5 N 20 -
03.08.2020 16:00:00 27,4 7,8 9 5 N 20 0,0
03.08.2020 15:00:00 26,3 6,8 8 4 WNW 20 0,0
03.08.2020 14:00:00 25,4 7,5 8 4 N 20 -
03.08.2020 13:00:00 25,2 7,8 9 5 N 20 0,0
03.08.2020 12:00:00 22,6 7,2 4 2 NW 20 0,0
03.08.2020 11:00:00 20,7 8,7 5 3 NE 20 -
03.08.2020 10:00:00 18,6 10,4 4 2 N 20 0,0
03.08.2020 09:00:00 15,9 9,3 4 2 NE 20 0,0
03.08.2020 08:00:00 13,2 9,4 2 1 NE 20 -
03.08.2020 07:00:00 13,8 10,0 4 2 N 20 0,0
03.08.2020 06:00:00 14,4 10,2 5 3 SE 20 0,0
03.08.2020 05:00:00 14,3 10,3 2 1 ENE 20 -
03.08.2020 04:00:00 14,2 10,2 2 1 E 20 0,0
03.08.2020 03:00:00 14,2 10,2 2 1 ENE 20 0,0
03.08.2020 02:00:00 14,6 10,2 2 1 NE 20 -
03.08.2020 01:00:00 15,3 10,5 4 2 E 20 0,0
03.08.2020 00:00:00 16,5 11,0 4 2 E 20 0,0
02.08.2020 23:00:00 17,7 11,0 4 2 ENE 20 -
02.08.2020 22:00:00 19,1 11,4 8 4 E 19 0,0
02.08.2020 21:00:00 21,7 11,7 5 3 ENE 18 0,0
02.08.2020 20:00:00 25,1 12,3 9 5 ENE 20 -
02.08.2020 19:00:00 28,8 13,5 5 3 NNE 20 0,0
02.08.2020 18:00:00 30,6 13,8 5 3 NE 20 0,0
02.08.2020 17:00:00 31,1 14,3 8 4 N 20 -
02.08.2020 16:00:00 31,7 13,5 8 4 NE 20 0,0
02.08.2020 15:00:00 32,0 14,2 13 7 NNW 20 0,0
02.08.2020 14:00:00 30,9 10,3 9 5 NW 20 -
02.08.2020 13:00:00 29,7 12,6 5 3 NE 20 0,0
02.08.2020 12:00:00 26,9 13,3 4 2 S 20 0,0
02.08.2020 11:00:00 24,7 13,6 5 3 N 20 -
02.08.2020 10:00:00 20,9 13,3 8 4 NNE 20 0,0
02.08.2020 09:00:00 15,6 11,8 2 1 WSW 20 0,0
02.08.2020 08:00:00 12,4 9,9 2 1 ENE 20 -
02.08.2020 07:00:00 12,2 9,8 2 1 E 20 0,0
02.08.2020 06:00:00 12,8 10,3 2 1 E 20 0,0
02.08.2020 05:00:00 13,3 10,8 2 1 E 20 -

tt = temperature
td = dewpoint
ff = wind speed
dd = wind direction
vv = visibility
rr = precipitation

Next stations